Eurodam — PHOS — position and weather

sailwx.info

Track history (hours):
 
Tides and Currents Weather Stations Pressure Air Temp Water Temp Dewpoint Dewpoint Depression Visibility Wind Speed Wind Dir Waves Ship Positions

Eurodam (Netherlands)

Last reported at 2018-Feb-26 00:17 UTC. Time now 2018-Feb-26 01:09 UTC.
Position N 26°09' W 079°22'.

Length 287 m; draft 8 m.

Type: Ship. MMSI: 245206000.

Date/timePositionNaut miles runAvg speedWind from/ knotsBaromVisibWave heightAir tempDewpointWater temp
2018-Feb-26 00:17N 26°09' W 079°22'517.5
2018-Feb-26 00:00N 26°09' W 079°27'815.7
2018-Feb-25 23:30N 26°08' W 079°36'917.3
2018-Feb-25 23:00N 26°07' W 079°46'917.2
2018-Feb-25 22:30N 26°06' W 079°55'816.1
2018-Feb-25 22:01N 26°05' W 080°04'3 5.6
2018-Feb-25 21:30N 26°05' W 080°07'0 0.2
2018-Feb-25 20:58N 26°05' W 080°07'0 0.0
2018-Feb-25 20:28N 26°05' W 080°07'0 0.0
2018-Feb-25 19:58N 26°05' W 080°07'0 0.0
2018-Feb-25 19:28N 26°05' W 080°07'0 0.0
2018-Feb-25 18:58N 26°05' W 080°07'0 0.0
2018-Feb-25 18:28N 26°05' W 080°07'0 0.0
2018-Feb-25 17:58N 26°05' W 080°07'0 0.0
2018-Feb-25 17:28N 26°05' W 080°07'0 0.0
2018-Feb-25 16:58N 26°05' W 080°07'0 0.0
2018-Feb-25 16:28N 26°05' W 080°07'0 0.0
2018-Feb-25 15:58N 26°05' W 080°07'0 0.0
2018-Feb-25 15:28N 26°05' W 080°07'0 0.0
2018-Feb-25 14:58N 26°05' W 080°07'0 0.0
2018-Feb-25 14:28N 26°05' W 080°07'0 0.0
2018-Feb-25 13:58N 26°05' W 080°07'0 0.0
2018-Feb-25 13:28N 26°05' W 080°07'0 0.0
2018-Feb-25 12:58N 26°05' W 080°07'0 0.0
2018-Feb-25 12:28N 26°05' W 080°07'0 0.0
2018-Feb-25 11:58N 26°05' W 080°07'0 0.0
2018-Feb-25 11:28N 26°05' W 080°07'0 0.0
2018-Feb-25 10:58N 26°05' W 080°07'0 0.1
2018-Feb-25 10:30N 26°05' W 080°07'1 3.0
2018-Feb-25 10:00N 26°06' W 080°05'611.3
2018-Feb-25 09:31N 26°06' W 079°59'816.3
2018-Feb-25 09:00N 26°07' W 079°50'816.7
2018-Feb-25 08:30N 26°08' W 079°41'816.7
2018-Feb-25 08:00N 26°08' W 079°32'816.7
2018-Feb-25 07:30N 26°09' W 079°22'1529.2
2018-Feb-25 07:00N 26°06' W 079°06'11118.4 140 / 191021.610.8 25.011.226.7
2018-Feb-25 01:00N 25°42' W 077°06'19111.3 090 / 251020.010.8 24.011.026.7
2018-Feb-24 08:00N 23°54' W 074°12'2512.5 090 / 251022.110.8 24.011.026.7
2018-Feb-24 06:00N 23°42' W 074°36'1817.5 090 / 301023.210.8 24.012.626.7
2018-Feb-24 05:00N 23°36' W 074°18'45719.9 090 / 301023.310.8 24.010.626.7
2018-Feb-23 06:00N 19°48' W 067°12'14618.2 070 / 321021.510.8 24.019.125.0
2018-Feb-22 22:00N 18°24' W 065°06'62 4.4 070 / 351019.610.8 26.020.125.1
2018-Feb-22 08:00N 18°00' W 064°06'2010.3 080 / 311020.8 23.012.025.3
2018-Feb-22 06:00N 17°57' W 063°45'713.8
2018-Feb-22 05:29N 17°54' W 063°38'813.9
2018-Feb-22 04:54N 17°52' W 063°30'714.0
2018-Feb-22 04:23N 17°49' W 063°23'714.1
2018-Feb-22 03:54N 17°46' W 063°16'714.1
2018-Feb-22 03:26N 17°43' W 063°10'614.0
2018-Feb-22 03:00N 17°41' W 063°04'714.0
2018-Feb-22 02:30N 17°38' W 062°58'714.0
2018-Feb-22 01:58N 17°35' W 062°51'3313.1
2018-Feb-21 23:29N 17°20' W 062°20'611.8
2018-Feb-21 23:00N 17°18' W 062°14'611.7
2018-Feb-21 22:30N 17°15' W 062°09'611.9
2018-Feb-21 22:00N 17°13' W 062°03'612.6
2018-Feb-21 21:30N 17°10' W 061°58'611.5
2018-Feb-21 21:00N 17°08' W 061°52'1 2.0
2018-Feb-21 20:29N 17°07' W 061°51'0 0.0
2018-Feb-21 19:59N 17°07' W 061°51'0 0.0
2018-Feb-21 19:29N 17°07' W 061°51'0 0.0
2018-Feb-21 18:59N 17°07' W 061°51'0 0.0
2018-Feb-21 18:29N 17°07' W 061°51'0 0.0
2018-Feb-21 17:59N 17°07' W 061°51'0 0.0
2018-Feb-21 17:29N 17°07' W 061°51'0 0.0
2018-Feb-21 16:59N 17°07' W 061°51'0 0.0
2018-Feb-21 16:29N 17°07' W 061°51'0 0.0
2018-Feb-21 15:59N 17°07' W 061°51'0 0.0
2018-Feb-21 15:29N 17°07' W 061°51'0 0.0
2018-Feb-21 14:56N 17°07' W 061°51'0 0.0
2018-Feb-21 14:29N 17°07' W 061°51'0 0.0
2018-Feb-21 13:59N 17°07' W 061°51'0 0.0
2018-Feb-21 13:29N 17°07' W 061°51'0 0.0
2018-Feb-21 12:59N 17°07' W 061°51'0 0.0
2018-Feb-21 12:29N 17°07' W 061°51'0 0.0
2018-Feb-21 12:00N 17°07' W 061°51'1 1.5
2018-Feb-21 11:30N 17°08' W 061°52'4 8.6
2018-Feb-21 11:00N 17°09' W 061°56'5 9.2
2018-Feb-21 10:30N 17°11' W 062°00'510.2
2018-Feb-21 10:00N 17°09' W 062°05'611.7
2018-Feb-21 09:30N 17°03' W 062°04'612.4
2018-Feb-21 09:00N 16°57' W 062°03'612.9
2018-Feb-21 08:30N 16°51' W 062°01'613.0
2018-Feb-21 08:00N 16°44' W 061°60'612.7
2018-Feb-21 07:30N 16°38' W 061°59'712.9
2018-Feb-21 06:59N 16°31' W 061°57'612.8
2018-Feb-21 06:30N 16°25' W 061°56'713.2
2018-Feb-21 06:00N 16°19' W 061°56'2133.1
2018-Feb-21 06:00N 16°18' W 061°54'612.2 090 / 321018.510.8 24.720.625.4
2018-Feb-21 05:30N 16°12' W 061°55'713.3
2018-Feb-21 04:58N 16°05' W 061°53'1313.3
2018-Feb-21 03:59N 15°53' W 061°49'714.2
2018-Feb-21 03:30N 15°47' W 061°46'914.1
2018-Feb-21 02:52N 15°38' W 061°42'2915.4
2018-Feb-21 01:00N 15°12' W 061°30'4512.2 050 / 321014.410.8 24.012.926.0
2018-Feb-20 21:21N 14°35' W 061°05'2 4.6
2018-Feb-20 21:00N 14°36' W 061°04'0 0.0
2018-Feb-20 20:17N 14°36' W 061°04'0 0.0
2018-Feb-20 19:59N 14°36' W 061°04'0 0.0
2018-Feb-20 19:23N 14°36' W 061°04'0 0.0
2018-Feb-20 17:23N 14°36' W 061°04'0 0.0
2018-Feb-20 16:50N 14°36' W 061°04'0 0.0
2018-Feb-20 15:17N 14°36' W 061°04'0 0.0
2018-Feb-20 14:11N 14°36' W 061°04'0 0.0
2018-Feb-20 12:32N 14°36' W 061°04'0 0.0
2018-Feb-20 11:19N 14°36' W 061°04'1 2.0
2018-Feb-20 10:59N 14°35' W 061°04'2 4.6
2018-Feb-20 10:30N 14°35' W 061°06'3 5.5
2018-Feb-20 10:00N 14°34' W 061°09'510.6
2018-Feb-20 09:30N 14°29' W 061°08'5 9.3
2018-Feb-20 09:00N 14°25' W 061°06'5 9.0
2018-Feb-20 08:30N 14°22' W 061°02'5 9.1
2018-Feb-20 08:00N 14°20' W 060°58'4 9.1
2018-Feb-20 07:30N 14°17' W 060°54'12 9.2
2018-Feb-20 06:14N 14°10' W 060°45'936.4
2018-Feb-20 06:00N 14°18' W 060°42'67 2.8 050 / 321016.410.8 24.012.926.0
2018-Feb-19 06:00N 13°18' W 060°12'37 7.4 050 / 321015.310.8 26.019.626.0
2018-Feb-19 01:00N 13°30' W 060°48'36 2.6 050 / 361012.010.8 26.012.126.0
2018-Feb-18 11:01N 14°03' W 061°03'315.5
2018-Feb-18 10:51N 14°05' W 061°05'617.7
2018-Feb-18 10:30N 14°10' W 061°09'917.3
2018-Feb-18 10:00N 14°16' W 061°15'917.4
2018-Feb-18 09:30N 14°23' W 061°20'917.9
2018-Feb-18 09:00N 14°31' W 061°24'918.0
2018-Feb-18 08:30N 14°39' W 061°29'917.9
2018-Feb-18 08:00N 14°48' W 061°30'1716.7 090 / 351016.510.8 24.811.026.5
2018-Feb-18 07:00N 15°00' W 061°42'6331.7 090 / 351016.810.8 24.812.126.5
2018-Feb-18 05:00N 15°36' W 062°36'4418.2 080 / 381016.810.8 24.811.426.5
2018-Feb-18 02:35N 16°19' W 062°26'319.2
2018-Feb-18 02:27N 16°21' W 062°27'1218.9
2018-Feb-18 01:50N 16°31' W 062°33'720.2
2018-Feb-18 01:30N 16°37' W 062°37'2820.3
2018-Feb-18 00:08N 17°01' W 062°51'320.1
2018-Feb-17 23:58N 17°04' W 062°53'2020.2
2018-Feb-17 22:58N 17°22' W 063°02'1120.1
2018-Feb-17 22:26N 17°32' W 063°06'1020.7
2018-Feb-17 21:57N 17°42' W 063°07'1321.1
2018-Feb-17 21:19N 17°55' W 063°08'517.1
2018-Feb-17 21:00N 17°60' W 063°05'2 3.2
2018-Feb-17 20:24N 18°01' W 063°03'0 0.0
2018-Feb-17 19:58N 18°01' W 063°03'0 0.0
2018-Feb-17 19:28N 18°01' W 063°03'0 0.0
2018-Feb-17 18:58N 18°01' W 063°03'0 0.0
2018-Feb-17 18:28N 18°01' W 063°03'0 0.0
2018-Feb-17 17:55N 18°01' W 063°03'0 0.0
2018-Feb-17 17:25N 18°01' W 063°03'0 0.0
2018-Feb-17 16:58N 18°01' W 063°03'0 0.0
2018-Feb-17 16:01N 18°01' W 063°03'0 0.0
2018-Feb-17 15:58N 18°01' W 063°03'0 0.0
2018-Feb-17 15:28N 18°01' W 063°03'0 0.0
2018-Feb-17 14:58N 18°01' W 063°03'0 0.0
2018-Feb-17 14:19N 18°01' W 063°03'0 0.0
2018-Feb-17 13:50N 18°01' W 063°03'0 0.0
2018-Feb-17 13:19N 18°01' W 063°03'0 0.0
2018-Feb-17 12:49N 18°01' W 063°03'0 0.0
2018-Feb-17 12:22N 18°01' W 063°03'0 0.0
2018-Feb-17 11:49N 18°01' W 063°03'0 0.6
2018-Feb-17 11:29N 18°01' W 063°03'2 3.1
2018-Feb-17 10:59N 18°00' W 063°05'1013.0
2018-Feb-17 10:14N 18°04' W 063°14'415.6
2018-Feb-17 09:58N 18°07' W 063°17'815.2
2018-Feb-17 09:27N 18°12' W 063°24'714.9
2018-Feb-17 08:59N 18°16' W 063°30'4314.4
2018-Feb-17 06:00N 18°42' W 064°06'25218.0 110 / 351019.910.8 22.819.225.4
2018-Feb-16 16:00N 20°54' W 067°54'9218.4 090 / 211021.910.8 25.822.125.2
2018-Feb-16 11:00N 21°42' W 069°18'9118.3 060 / 91021.610.8 22.019.526.1
2018-Feb-16 06:00N 22°30' W 070°42'   070 / 251022.810.8 24.011.325.6
Track history (hours):
 
Tides and Currents Weather Stations Pressure Air Temp Water Temp Dewpoint Dewpoint Depression Visibility Wind Speed Wind Dir Waves Ship Positions

Eurodam (Netherlands)

Last reported at 2018-Feb-26 00:17 UTC. Time now 2018-Feb-26 01:09 UTC.
Position N 26°09' W 079°22'.

Length 287 m; draft 8 m.

Type: Ship. MMSI: 245206000.

Date/timePositionNaut miles runAvg speedWind from/ knotsBaromVisibWave heightAir tempDewpointWater temp
2018-Feb-26 00:17N 26°09' W 079°22'517.5
2018-Feb-26 00:00N 26°09' W 079°27'815.7
2018-Feb-25 23:30N 26°08' W 079°36'917.3
2018-Feb-25 23:00N 26°07' W 079°46'917.2
2018-Feb-25 22:30N 26°06' W 079°55'816.1
2018-Feb-25 22:01N 26°05' W 080°04'3 5.6
2018-Feb-25 21:30N 26°05' W 080°07'0 0.2
2018-Feb-25 20:58N 26°05' W 080°07'0 0.0
2018-Feb-25 20:28N 26°05' W 080°07'0 0.0
2018-Feb-25 19:58N 26°05' W 080°07'0 0.0
2018-Feb-25 19:28N 26°05' W 080°07'0 0.0
2018-Feb-25 18:58N 26°05' W 080°07'0 0.0
2018-Feb-25 18:28N 26°05' W 080°07'0 0.0
2018-Feb-25 17:58N 26°05' W 080°07'0 0.0
2018-Feb-25 17:28N 26°05' W 080°07'0 0.0
2018-Feb-25 16:58N 26°05' W 080°07'0 0.0
2018-Feb-25 16:28N 26°05' W 080°07'0 0.0
2018-Feb-25 15:58N 26°05' W 080°07'0 0.0
2018-Feb-25 15:28N 26°05' W 080°07'0 0.0
2018-Feb-25 14:58N 26°05' W 080°07'0 0.0
2018-Feb-25 14:28N 26°05' W 080°07'0 0.0
2018-Feb-25 13:58N 26°05' W 080°07'0 0.0
2018-Feb-25 13:28N 26°05' W 080°07'0 0.0
2018-Feb-25 12:58N 26°05' W 080°07'0 0.0
2018-Feb-25 12:28N 26°05' W 080°07'0 0.0
2018-Feb-25 11:58N 26°05' W 080°07'0 0.0
2018-Feb-25 11:28N 26°05' W 080°07'0 0.0
2018-Feb-25 10:58N 26°05' W 080°07'0 0.1
2018-Feb-25 10:30N 26°05' W 080°07'1 3.0
2018-Feb-25 10:00N 26°06' W 080°05'611.3
2018-Feb-25 09:31N 26°06' W 079°59'816.3
2018-Feb-25 09:00N 26°07' W 079°50'816.7
2018-Feb-25 08:30N 26°08' W 079°41'816.7
2018-Feb-25 08:00N 26°08' W 079°32'816.7
2018-Feb-25 07:30N 26°09' W 079°22'1529.2
2018-Feb-25 07:00N 26°06' W 079°06'11118.4 140 / 191021.610.8 25.011.226.7
2018-Feb-25 01:00N 25°42' W 077°06'19111.3 090 / 251020.010.8 24.011.026.7
2018-Feb-24 08:00N 23°54' W 074°12'2512.5 090 / 251022.110.8 24.011.026.7
2018-Feb-24 06:00N 23°42' W 074°36'1817.5 090 / 301023.210.8 24.012.626.7
2018-Feb-24 05:00N 23°36' W 074°18'45719.9 090 / 301023.310.8 24.010.626.7
2018-Feb-23 06:00N 19°48' W 067°12'14618.2 070 / 321021.510.8 24.019.125.0
2018-Feb-22 22:00N 18°24' W 065°06'62 4.4 070 / 351019.610.8 26.020.125.1
2018-Feb-22 08:00N 18°00' W 064°06'2010.3 080 / 311020.8 23.012.025.3
2018-Feb-22 06:00N 17°57' W 063°45'713.8
2018-Feb-22 05:29N 17°54' W 063°38'813.9
2018-Feb-22 04:54N 17°52' W 063°30'714.0
2018-Feb-22 04:23N 17°49' W 063°23'714.1
2018-Feb-22 03:54N 17°46' W 063°16'714.1
2018-Feb-22 03:26N 17°43' W 063°10'614.0
2018-Feb-22 03:00N 17°41' W 063°04'714.0
2018-Feb-22 02:30N 17°38' W 062°58'714.0
2018-Feb-22 01:58N 17°35' W 062°51'3313.1
2018-Feb-21 23:29N 17°20' W 062°20'611.8
2018-Feb-21 23:00N 17°18' W 062°14'611.7
2018-Feb-21 22:30N 17°15' W 062°09'611.9
2018-Feb-21 22:00N 17°13' W 062°03'612.6
2018-Feb-21 21:30N 17°10' W 061°58'611.5
2018-Feb-21 21:00N 17°08' W 061°52'1 2.0
2018-Feb-21 20:29N 17°07' W 061°51'0 0.0
2018-Feb-21 19:59N 17°07' W 061°51'0 0.0
2018-Feb-21 19:29N 17°07' W 061°51'0 0.0
2018-Feb-21 18:59N 17°07' W 061°51'0 0.0
2018-Feb-21 18:29N 17°07' W 061°51'0 0.0
2018-Feb-21 17:59N 17°07' W 061°51'0 0.0
2018-Feb-21 17:29N 17°07' W 061°51'0 0.0
2018-Feb-21 16:59N 17°07' W 061°51'0 0.0
2018-Feb-21 16:29N 17°07' W 061°51'0 0.0
2018-Feb-21 15:59N 17°07' W 061°51'0 0.0
2018-Feb-21 15:29N 17°07' W 061°51'0 0.0
2018-Feb-21 14:56N 17°07' W 061°51'0 0.0
2018-Feb-21 14:29N 17°07' W 061°51'0 0.0
2018-Feb-21 13:59N 17°07' W 061°51'0 0.0
2018-Feb-21 13:29N 17°07' W 061°51'0 0.0
2018-Feb-21 12:59N 17°07' W 061°51'0 0.0
2018-Feb-21 12:29N 17°07' W 061°51'0 0.0
2018-Feb-21 12:00N 17°07' W 061°51'1 1.5
2018-Feb-21 11:30N 17°08' W 061°52'4 8.6
2018-Feb-21 11:00N 17°09' W 061°56'5 9.2
2018-Feb-21 10:30N 17°11' W 062°00'510.2
2018-Feb-21 10:00N 17°09' W 062°05'611.7
2018-Feb-21 09:30N 17°03' W 062°04'612.4
2018-Feb-21 09:00N 16°57' W 062°03'612.9
2018-Feb-21 08:30N 16°51' W 062°01'613.0
2018-Feb-21 08:00N 16°44' W 061°60'612.7
2018-Feb-21 07:30N 16°38' W 061°59'712.9
2018-Feb-21 06:59N 16°31' W 061°57'612.8
2018-Feb-21 06:30N 16°25' W 061°56'713.2
2018-Feb-21 06:00N 16°19' W 061°56'2133.1
2018-Feb-21 06:00N 16°18' W 061°54'612.2 090 / 321018.510.8 24.720.625.4
2018-Feb-21 05:30N 16°12' W 061°55'713.3
2018-Feb-21 04:58N 16°05' W 061°53'1313.3
2018-Feb-21 03:59N 15°53' W 061°49'714.2
2018-Feb-21 03:30N 15°47' W 061°46'914.1
2018-Feb-21 02:52N 15°38' W 061°42'2915.4
2018-Feb-21 01:00N 15°12' W 061°30'4512.2 050 / 321014.410.8 24.012.926.0
2018-Feb-20 21:21N 14°35' W 061°05'2 4.6
2018-Feb-20 21:00N 14°36' W 061°04'0 0.0
2018-Feb-20 20:17N 14°36' W 061°04'0 0.0
2018-Feb-20 19:59N 14°36' W 061°04'0 0.0
2018-Feb-20 19:23N 14°36' W 061°04'0 0.0
2018-Feb-20 17:23N 14°36' W 061°04'0 0.0
2018-Feb-20 16:50N 14°36' W 061°04'0 0.0
2018-Feb-20 15:17N 14°36' W 061°04'0 0.0
2018-Feb-20 14:11N 14°36' W 061°04'0 0.0
2018-Feb-20 12:32N 14°36' W 061°04'0 0.0
2018-Feb-20 11:19N 14°36' W 061°04'1 2.0
2018-Feb-20 10:59N 14°35' W 061°04'2 4.6
2018-Feb-20 10:30N 14°35' W 061°06'3 5.5
2018-Feb-20 10:00N 14°34' W 061°09'510.6
2018-Feb-20 09:30N 14°29' W 061°08'5 9.3
2018-Feb-20 09:00N 14°25' W 061°06'5 9.0
2018-Feb-20 08:30N 14°22' W 061°02'5 9.1
2018-Feb-20 08:00N 14°20' W 060°58'4 9.1
2018-Feb-20 07:30N 14°17' W 060°54'12 9.2
2018-Feb-20 06:14N 14°10' W 060°45'936.4
2018-Feb-20 06:00N 14°18' W 060°42'67 2.8 050 / 321016.410.8 24.012.926.0
2018-Feb-19 06:00N 13°18' W 060°12'37 7.4 050 / 321015.310.8 26.019.626.0
2018-Feb-19 01:00N 13°30' W 060°48'36 2.6 050 / 361012.010.8 26.012.126.0
2018-Feb-18 11:01N 14°03' W 061°03'315.5
2018-Feb-18 10:51N 14°05' W 061°05'617.7
2018-Feb-18 10:30N 14°10' W 061°09'917.3
2018-Feb-18 10:00N 14°16' W 061°15'917.4
2018-Feb-18 09:30N 14°23' W 061°20'917.9
2018-Feb-18 09:00N 14°31' W 061°24'918.0
2018-Feb-18 08:30N 14°39' W 061°29'917.9
2018-Feb-18 08:00N 14°48' W 061°30'1716.7 090 / 351016.510.8 24.811.026.5
2018-Feb-18 07:00N 15°00' W 061°42'6331.7 090 / 351016.810.8 24.812.126.5
2018-Feb-18 05:00N 15°36' W 062°36'4418.2 080 / 381016.810.8 24.811.426.5
2018-Feb-18 02:35N 16°19' W 062°26'319.2
2018-Feb-18 02:27N 16°21' W 062°27'1218.9
2018-Feb-18 01:50N 16°31' W 062°33'720.2
2018-Feb-18 01:30N 16°37' W 062°37'2820.3
2018-Feb-18 00:08N 17°01' W 062°51'320.1
2018-Feb-17 23:58N 17°04' W 062°53'2020.2
2018-Feb-17 22:58N 17°22' W 063°02'1120.1
2018-Feb-17 22:26N 17°32' W 063°06'1020.7
2018-Feb-17 21:57N 17°42' W 063°07'1321.1
2018-Feb-17 21:19N 17°55' W 063°08'517.1
2018-Feb-17 21:00N 17°60' W 063°05'2 3.2
2018-Feb-17 20:24N 18°01' W 063°03'0 0.0
2018-Feb-17 19:58N 18°01' W 063°03'0 0.0
2018-Feb-17 19:28N 18°01' W 063°03'0 0.0
2018-Feb-17 18:58N 18°01' W 063°03'0 0.0
2018-Feb-17 18:28N 18°01' W 063°03'0 0.0
2018-Feb-17 17:55N 18°01' W 063°03'0 0.0
2018-Feb-17 17:25N 18°01' W 063°03'0 0.0
2018-Feb-17 16:58N 18°01' W 063°03'0 0.0
2018-Feb-17 16:01N 18°01' W 063°03'0 0.0
2018-Feb-17 15:58N 18°01' W 063°03'0 0.0
2018-Feb-17 15:28N 18°01' W 063°03'0 0.0
2018-Feb-17 14:58N 18°01' W 063°03'0 0.0
2018-Feb-17 14:19N 18°01' W 063°03'0 0.0
2018-Feb-17 13:50N 18°01' W 063°03'0 0.0
2018-Feb-17 13:19N 18°01' W 063°03'0 0.0
2018-Feb-17 12:49N 18°01' W 063°03'0 0.0
2018-Feb-17 12:22N 18°01' W 063°03'0 0.0
2018-Feb-17 11:49N 18°01' W 063°03'0 0.6
2018-Feb-17 11:29N 18°01' W 063°03'2 3.1
2018-Feb-17 10:59N 18°00' W 063°05'1013.0
2018-Feb-17 10:14N 18°04' W 063°14'415.6
2018-Feb-17 09:58N 18°07' W 063°17'815.2
2018-Feb-17 09:27N 18°12' W 063°24'714.9
2018-Feb-17 08:59N 18°16' W 063°30'4314.4
2018-Feb-17 06:00N 18°42' W 064°06'25218.0 110 / 351019.910.8 22.819.225.4
2018-Feb-16 16:00N 20°54' W 067°54'9218.4 090 / 211021.910.8 25.822.125.2
2018-Feb-16 11:00N 21°42' W 069°18'9118.3 060 / 91021.610.8 22.019.526.1
2018-Feb-16 06:00N 22°30' W 070°42'   070 / 251022.810.8 24.011.325.6

Dump ship's entire track history